Weather observations for the past three days for
Sisseton, Sisseton Municipal Airport
Imperial (Metric)
Date Time (cdt) Wind (mph) Vis. (mi.) Weather Sky Cond. Temperature (ºF) Relative Humidity Wind Chill (°F) Heat Index (°F) Pressure Precipitation (in)
Air Dwpt 6 hour altimeter (in) sea level (mb) 1 hr 3 hr 6 hr
Max. Min.
03 00:56 NW 15 0.00 NULL NULL 52 37 68 52 57% 29.75 1006.9
02 23:56 NW 18 0.00 NULL NULL 55.9 37 49% 29.72 1005.8
02 22:56 W 14 0.00 NULL NULL 59 36 42% 29.7 1005.0
02 21:56 W 12 0.00 NULL NULL 57 37 47% 29.7 1005.3
02 20:56 W 7 0.00 NULL NULL 61 37.9 43% 29.69 1004.9
02 19:56 SW 9 0.00 NULL NULL 66 37.9 36% 29.68 1004.7
02 18:56 W 20 G 37 0.00 NULL NULL 68 35.1 72 64.9 30% 29.72 1006.1
02 17:56 SW 20 G 28 0.00 NULL NULL 70 28.9 22% 29.74 1006.8
02 16:56 SW 17 G 28 0.00 NULL NULL 70 25 18% 29.78 1008.1
02 15:56 SW 20 G 28 0.00 NULL NULL 66.9 25 20% 29.82 1009.7
02 14:56 SW 23 G 30 0.00 Breezy NULL 68 28 22% 29.85 1010.7
02 13:56 W 18 G 26 0.00 NULL NULL 66 28.9 25% 29.88 1011.9
02 12:56 W 22 G 32 0.00 Breezy NULL 66 34 66 44.1 30% 29.89 1012.4
02 11:56 W 24 G 38 0.00 Breezy NULL 64 32 30% 29.92 1013.3
02 10:56 W 26 G 36 0.00 Windy NULL 61 32 34% 29.93 1014.1
02 09:56 W 25 G 35 0.00 Breezy NULL 57.9 32 38% 29.95 1014.5
02 08:56 SW 20 G 31 0.00 NULL NULL 53.1 32 45% 29.98 1015.3
02 07:56 SW 17 G 31 0.00 NULL NULL 48.9 28.9 46% 43 29.99 1015.8
02 06:56 SW 14 0.00 NULL NULL 44.1 27 45 34 51% 38 30.01 1016.5
02 05:56 SW 17 G 23 0.00 NULL NULL 44.1 27 51% 37 30.01 1016.6
02 04:56 SW 15 0.00 NULL NULL 44.1 28 53% 38 30.04 1017.5
02 03:56 SW 9 0.00 NULL NULL 42.1 28.9 60% 37 30.05 1018.0
02 02:56 SW 9 0.00 NULL NULL 37 30 76% 31 30.06 1018.8
02 01:56 S 9 0.00 NULL NULL 37 27 67% 31 30.08 1019.5
02 00:56 SW 5 0.00 NULL NULL 35.1 26.1 54 33.1 70% 32 30.08 1019.8
01 23:56 S 7 0.00 NULL NULL 35.1 28 76% 30 30.09 1019.9
01 22:56 SW 5 0.00 NULL NULL 35.1 28 76% 32 30.1 1020.4
01 21:56 Calm 0.00 NULL NULL 42.1 28 58% 30.1 1020.3
01 20:56 NE 3 0.00 NULL NULL 46 23 40% 30.09 1019.8
01 19:56 N 5 0.00 NULL NULL 50 25 38% 49 30.08 1019.5
01 18:56 NW 12 0.00 NULL NULL 54 21.9 55 48 29% 30.08 1019.7
01 17:56 N 12 0.00 NULL NULL 55 21.9 28% 30.08 1019.8
01 16:56 NW 13 G 17 0.00 NULL NULL 54 23 30% 30.09 1020.0
01 15:56 N 12 G 18 0.00 NULL NULL 54 24.1 31% 30.11 1020.5
01 14:56 N 10 G 18 0.00 NULL NULL 52 24.1 34% 30.12 1021.0
01 13:56 N 12 G 18 0.00 NULL NULL 51.1 25 36% 30.13 1021.3
01 12:56 Vrbl 3 G 17 0.00 NULL NULL 48 25 48 30 41% 30.13 1021.6
01 11:56 N 8 G 20 0.00 NULL NULL 46.9 25 42% 44 30.14 1021.9
01 10:56 N 14 G 20 0.00 NULL NULL 46 27 47% 40 30.15 1021.9
01 09:56 NW 10 0.00 NULL NULL 42.1 27 55% 37 30.15 1022.0
01 08:56 NW 12 0.00 NULL NULL 37.9 27 65% 31 30.14 1021.8
01 07:56 NW 10 0.00 NULL NULL 35.1 25 67% 28 30.13 1021.6
01 06:56 NW 8 0.00 NULL NULL 30 24.1 32 28 79% 23 30.12 1021.3
01 05:56 NW 9 0.00 NULL NULL 28.9 23 78% 21 30.11 1020.8
01 04:56 NW 8 0.00 NULL NULL 30 24.1 79% 23 30.1 1020.5
01 03:56 NW 9 0.00 NULL NULL 30 24.1 79% 22 30.1 1020.3
01 02:56 NW 8 0.00 NULL NULL 28.9 24.1 82% 22 30.09 1020.3
01 01:56 NW 7 0.00 NULL NULL 30.9 25 79% 25 30.1 1020.2
01 00:56 NW 7 0.00 NULL NULL 32 26.1 46 30.9 79% 26 30.1 1020.2
30 23:56 NW 12 0.00 NULL NULL 35.1 28.9 78% 28 30.1 1020.0
30 22:56 N 13 0.00 NULL NULL 37.9 28 68% 31 30.09 1020.0
30 21:56 N 14 0.00 NULL NULL 39.9 30 68% 33 30.08 1019.6
30 20:56 N 13 0.00 NULL NULL 43 30.9 63% 37 30.05 1018.4
30 19:56 N 8 0.00 NULL NULL 45 36 71% 41 30.03 1018.2
30 18:56 NE 12 0.00 NULL NULL 46 36 53.1 46 68% 41 30.02 1017.9
30 17:56 N 15 0.00 NULL NULL 51.1 34 52% 30 1017.2
30 16:56 NW 12 0.00 NULL NULL 51.1 32 48% 30 1017.0
30 15:56 NW 13 0.00 NULL NULL 52 33.1 49% 30.01 1017.4
30 14:56 SW 16 G 23 0.00 NULL NULL 50 33.1 52% 45 30.02 1017.8
30 13:56 W 15 G 22 0.00 NULL NULL 52 32 47% 30.04 1018.1
30 12:56 W 17 G 29 0.00 NULL NULL 51.1 30.9 52 30 46% 30.06 1018.9
30 11:56 W 14 G 23 0.00 NULL NULL 50 26.1 39% 45 30.07 1019.3
30 09:56 NW 7 0.00 NULL NULL 42.1 28 58% 38 30.12 1021.0
30 08:56 N 5 0.00 NULL NULL 42.1 28 58% 40 30.13 1021.1
30 07:56 Calm 0.00 NULL NULL 32 28 85% 30.13 1021.3
30 06:56 Calm 0.00 NULL NULL 30 26.1 37 26.1 85% 30.12 1021.1
30 05:56 N 3 0.00 NULL NULL 26.1 24.1 92% 30.12 1021.2
30 04:56 W 3 0.00 NULL NULL 28 25 88% 30.13 1021.2
30 03:56 NW 5 0.00 NULL NULL 28 25 88% 24 30.13 1021.1
30 02:56 Calm 0.00 NULL NULL 30.9 27 85% 30.12 1020.7
30 01:56 W 6 0.00 NULL NULL 34 28 79% 29 30.12 1020.9
Date Time (cdt) Wind (mph) Vis. (mi.) Weather Sky Cond. Air Dwpt Max. Min. Relative Humidity Wind Chill (°F) Heat Index (°F) altimeter (in) sea level (mb) 1 hr 3 hr 6 hr
6 hour
Temperature (ºF) Pressure Precipitation (in)